Wetterdaten: Woche 21.04.14 - 27.04.14 (KW17)
Datum Zeit Temp. A. Feuchte A. Luftdruck Regen Wind Richtung Sonnenschein ET UV Solar Taupunkt Windchill Windben
21.04.2014 00:00 8,2 C 80 % 1006,8 hPa 0,0 l/m 1,4 km/h (1 Bft) N-NO 0,00 h 0,025 mm 0,0 UV-I 0 W/m 5,0 C 8,2 C 2,7 km/h (1 Bft)
21.04.2014 01:00 7,3 C 84 % 1006,4 hPa 0,0 l/m 0,5 km/h (0 Bft) N-NO 0,00 h 0,025 mm 0,0 UV-I 0 W/m 4,7 C 7,3 C 1,5 km/h (1 Bft)
21.04.2014 02:00 6,7 C 86 % 1005,9 hPa 0,0 l/m 0,7 km/h (0 Bft) O 0,00 h 0,000 mm 0,0 UV-I 0 W/m 4,4 C 6,7 C 2,0 km/h (1 Bft)
21.04.2014 03:00 6,1 C 88 % 1005,3 hPa 0,0 l/m 1,4 km/h (1 Bft) O-NO 0,00 h 0,000 mm 0,0 UV-I 0 W/m 4,3 C 6,1 C 3,3 km/h (1 Bft)
21.04.2014 04:00 7,1 C 87 % 1004,8 hPa 0,0 l/m 5,9 km/h (2 Bft) O-NO 0,00 h 0,000 mm 0,0 UV-I 0 W/m 5,0 C 6,7 C 10,5 km/h (2 Bft)
21.04.2014 05:00 6,1 C 88 % 1004,6 hPa 0,0 l/m 1,1 km/h (0 Bft) N 0,00 h 0,025 mm 0,0 UV-I 0 W/m 4,2 C 6,1 C 2,6 km/h (1 Bft)
21.04.2014 06:00 6,2 C 89 % 1004,7 hPa 0,0 l/m 3,6 km/h (1 Bft) N-NO 0,00 h 0,000 mm 0,0 UV-I 20 W/m 4,5 C 6,1 C 7,3 km/h (2 Bft)
21.04.2014 07:00 8,0 C 84 % 1004,8 hPa 0,0 l/m 6,0 km/h (2 Bft) O-NO 0,57 h 0,025 mm 0,0 UV-I 53 W/m 5,5 C 7,5 C 11,7 km/h (2 Bft)
21.04.2014 08:00 8,3 C 83 % 1005,0 hPa 0,0 l/m 6,7 km/h (2 Bft) O-SO 0,48 h 0,025 mm 0,0 UV-I 51 W/m 5,6 C 7,3 C 12,7 km/h (3 Bft)
21.04.2014 09:00 8,4 C 83 % 1004,8 hPa 0,0 l/m 5,9 km/h (2 Bft) O 0,97 h 0,025 mm 0,5 UV-I 70 W/m 5,6 C 7,7 C 11,3 km/h (2 Bft)
21.04.2014 10:00 8,7 C 81 % 1004,8 hPa 0,0 l/m 5,4 km/h (1 Bft) SO 1,00 h 0,051 mm 0,8 UV-I 93 W/m 5,7 C 8,1 C 10,4 km/h (2 Bft)
21.04.2014 11:00 10,4 C 76 % 1004,6 hPa 0,0 l/m 7,9 km/h (2 Bft) O-NO 1,00 h 0,051 mm 2,8 UV-I 415 W/m 6,4 C 9,1 C 13,9 km/h (3 Bft)
21.04.2014 12:00 11,9 C 70 % 1004,4 hPa 0,0 l/m 7,5 km/h (2 Bft) SO 1,00 h 0,203 mm 2,9 UV-I 355 W/m 6,6 C 10,8 C 13,1 km/h (3 Bft)
21.04.2014 13:00 12,5 C 69 % 1004,5 hPa 0,0 l/m 7,4 km/h (2 Bft) SO 1,00 h 0,203 mm 3,5 UV-I 472 W/m 6,9 C 11,5 C 12,4 km/h (3 Bft)
21.04.2014 14:00 13,5 C 67 % 1004,5 hPa 0,0 l/m 7,7 km/h (2 Bft) O-SO 1,00 h 0,279 mm 3,8 UV-I 582 W/m 7,5 C 12,5 C 12,9 km/h (3 Bft)
21.04.2014 15:00 14,9 C 64 % 1004,3 hPa 0,0 l/m 7,3 km/h (2 Bft) O 1,00 h 0,305 mm 2,7 UV-I 442 W/m 8,0 C 14,1 C 12,6 km/h (3 Bft)
21.04.2014 16:00 14,6 C 65 % 1004,1 hPa 0,0 l/m 5,4 km/h (1 Bft) O 1,00 h 0,279 mm 1,5 UV-I 249 W/m 8,1 C 14,3 C 10,1 km/h (2 Bft)
21.04.2014 17:00 15,0 C 65 % 1004,1 hPa 0,0 l/m 5,8 km/h (2 Bft) O 1,00 h 0,152 mm 1,1 UV-I 254 W/m 8,5 C 14,6 C 10,3 km/h (2 Bft)
21.04.2014 18:00 14,5 C 67 % 1004,0 hPa 0,0 l/m 4,1 km/h (1 Bft) O-SO 0,90 h 0,152 mm 0,6 UV-I 87 W/m 8,4 C 14,3 C 7,5 km/h (2 Bft)
21.04.2014 19:00 13,7 C 71 % 1004,1 hPa 0,0 l/m 2,0 km/h (1 Bft) SO 0,00 h 0,076 mm 0,0 UV-I 30 W/m 8,5 C 13,7 C 4,1 km/h (1 Bft)
21.04.2014 20:00 12,2 C 77 % 1004,7 hPa 0,0 l/m 0,7 km/h (0 Bft) N-NO 0,00 h 0,025 mm 0,0 UV-I 6 W/m 8,3 C 12,2 C 1,7 km/h (1 Bft)
21.04.2014 21:00 11,7 C 79 % 1005,6 hPa 0,0 l/m 2,3 km/h (1 Bft) O-NO 0,00 h 0,000 mm 0,0 UV-I 0 W/m 8,2 C 11,7 C 4,7 km/h (1 Bft)
21.04.2014 22:00 11,9 C 79 % 1005,7 hPa 0,0 l/m 3,7 km/h (1 Bft) O-NO 0,00 h 0,025 mm 0,0 UV-I 0 W/m 8,3 C 11,9 C 7,1 km/h (2 Bft)
21.04.2014 23:00 11,0 C 82 % 1006,0 hPa 0,0 l/m 1,4 km/h (1 Bft) O-NO 0,00 h 0,025 mm 0,0 UV-I 0 W/m 8,1 C 11,0 C 3,3 km/h (1 Bft)
22.04.2014 00:00 9,4 C 88 % 1006,6 hPa 0,0 l/m 0,5 km/h (0 Bft) N-NO 0,00 h 0,025 mm 0,0 UV-I 0 W/m 7,4 C 9,4 C 1,1 km/h (0 Bft)
22.04.2014 01:00 8,9 C 91 % 1007,0 hPa 0,0 l/m 2,6 km/h (1 Bft) N-NO 0,00 h 0,000 mm 0,0 UV-I 0 W/m 7,5 C 8,9 C 4,3 km/h (1 Bft)
22.04.2014 02:00 7,7 C 92 % 1007,4 hPa 0,0 l/m 0,2 km/h (0 Bft) O-NO 0,00 h 0,000 mm 0,0 UV-I 0 W/m 6,5 C 7,7 C 0,9 km/h (0 Bft)
22.04.2014 03:00 6,6 C 94 % 1008,0 hPa 0,0 l/m 0,3 km/h (0 Bft) O 0,00 h 0,000 mm 0,0 UV-I 0 W/m 5,7 C 6,6 C 0,7 km/h (0 Bft)
22.04.2014 04:00 5,9 C 95 % 1008,4 hPa 0,0 l/m 0,0 km/h (0 Bft) N 0,00 h 0,000 mm 0,0 UV-I 0 W/m 5,1 C 5,9 C 0,1 km/h (0 Bft)
22.04.2014 05:00 6,2 C 94 % 1008,9 hPa 0,0 l/m 0,1 km/h (0 Bft) SO 0,00 h 0,000 mm 0,0 UV-I 0 W/m 5,3 C 6,2 C 0,6 km/h (0 Bft)
22.04.2014 06:00 7,0 C 95 % 1009,5 hPa 0,4 l/m 0,0 km/h (0 Bft) N 0,00 h 0,000 mm 0,0 UV-I 10 W/m 6,2 C 7,0 C 0,1 km/h (0 Bft)
22.04.2014 07:00 7,6 C 96 % 1010,2 hPa 0,8 l/m 0,3 km/h (0 Bft) SO 0,00 h 0,000 mm 0,0 UV-I 19 W/m 7,0 C 7,6 C 0,9 km/h (0 Bft)
22.04.2014 08:00 9,0 C 96 % 1010,6 hPa 0,0 l/m 1,1 km/h (1 Bft) O 0,93 h 0,000 mm 0,8 UV-I 187 W/m 8,4 C 9,0 C 2,3 km/h (1 Bft)
22.04.2014 09:00 12,0 C 87 % 1011,0 hPa 0,0 l/m 1,6 km/h (1 Bft) NW 1,00 h 0,076 mm 1,7 UV-I 455 W/m 9,9 C 12,0 C 2,9 km/h (1 Bft)
22.04.2014 10:00 13,9 C 77 % 1011,4 hPa 0,0 l/m 3,9 km/h (1 Bft) W-SW 1,00 h 0,229 mm 2,7 UV-I 574 W/m 9,9 C 13,9 C 6,5 km/h (2 Bft)
22.04.2014 11:00 14,9 C 68 % 1012,0 hPa 0,0 l/m 5,0 km/h (1 Bft) S 1,00 h 0,305 mm 3,5 UV-I 485 W/m 9,0 C 14,7 C 7,8 km/h (2 Bft)
22.04.2014 12:00 15,9 C 62 % 1012,1 hPa 0,0 l/m 5,4 km/h (1 Bft) S 1,00 h 0,279 mm 4,3 UV-I 594 W/m 8,7 C 15,6 C 8,8 km/h (2 Bft)
22.04.2014 13:00 16,8 C 58 % 1012,1 hPa 0,0 l/m 5,9 km/h (2 Bft) S-SO 1,00 h 0,330 mm 4,5 UV-I 600 W/m 8,5 C 16,4 C 9,2 km/h (2 Bft)
22.04.2014 14:00 16,3 C 59 % 1012,3 hPa 0,0 l/m 6,6 km/h (2 Bft) S-SW 1,00 h 0,381 mm 2,1 UV-I 236 W/m 8,4 C 16,0 C 10,1 km/h (2 Bft)
22.04.2014 15:00 16,7 C 58 % 1012,4 hPa 0,2 l/m 4,6 km/h (1 Bft) S 1,00 h 0,152 mm 2,6 UV-I 371 W/m 8,5 C 16,6 C 7,1 km/h (2 Bft)
22.04.2014 16:00 16,9 C 56 % 1012,4 hPa 0,0 l/m 5,7 km/h (1 Bft) SW 1,00 h 0,229 mm 1,6 UV-I 275 W/m 8,1 C 16,5 C 8,9 km/h (2 Bft)
22.04.2014 17:00 17,8 C 53 % 1012,6 hPa 0,0 l/m 4,3 km/h (1 Bft) W 1,00 h 0,203 mm 1,5 UV-I 454 W/m 7,9 C 17,6 C 7,3 km/h (2 Bft)
22.04.2014 18:00 17,2 C 53 % 1012,7 hPa 0,0 l/m 5,3 km/h (1 Bft) W 0,47 h 0,279 mm 0,8 UV-I 85 W/m 7,6 C 17,0 C 8,1 km/h (2 Bft)
22.04.2014 19:00 15,9 C 61 % 1013,3 hPa 0,0 l/m 2,3 km/h (1 Bft) SW 0,00 h 0,076 mm 0,0 UV-I 26 W/m 8,2 C 15,8 C 4,3 km/h (1 Bft)
22.04.2014 20:00 14,1 C 68 % 1014,2 hPa 0,0 l/m 0,2 km/h (0 Bft) S-SW 0,00 h 0,025 mm 0,0 UV-I 6 W/m 8,4 C 14,1 C 0,6 km/h (0 Bft)
22.04.2014 21:00 12,1 C 79 % 1015,0 hPa 0,0 l/m 0,0 km/h (0 Bft) S-SW 0,00 h 0,000 mm 0,0 UV-I 0 W/m 8,5 C 12,1 C 0,2 km/h (0 Bft)
22.04.2014 22:00 10,1 C 85 % 1015,4 hPa 0,0 l/m 0,0 km/h (0 Bft) N 0,00 h 0,025 mm 0,0 UV-I 0 W/m 7,7 C 10,1 C 0,3 km/h (0 Bft)
22.04.2014 23:00 8,5 C 90 % 1015,9 hPa 0,0 l/m 0,2 km/h (0 Bft) O 0,00 h 0,000 mm 0,0 UV-I 0 W/m 6,9 C 8,5 C 0,5 km/h (0 Bft)
23.04.2014 00:00 7,2 C 92 % 1016,4 hPa 0,0 l/m 0,1 km/h (0 Bft) O-SO 0,00 h 0,000 mm 0,0 UV-I 0 W/m 5,9 C 7,2 C 0,2 km/h (0 Bft)
23.04.2014 01:00 6,3 C 93 % 1016,8 hPa 0,0 l/m 0,0 km/h (0 Bft) N 0,00 h 0,000 mm 0,0 UV-I 0 W/m 5,3 C 6,3 C 0,2 km/h (0 Bft)
23.04.2014 02:00 5,6 C 93 % 1017,1 hPa 0,0 l/m 0,0 km/h (0 Bft) N 0,00 h 0,000 mm 0,0 UV-I 0 W/m 4,5 C 5,6 C 0,0 km/h (0 Bft)
23.04.2014 03:00 4,7 C 94 % 1017,6 hPa 0,0 l/m 0,0 km/h (0 Bft) N 0,00 h 0,000 mm 0,0 UV-I 0 W/m 3,8 C 4,7 C 0,0 km/h (0 Bft)
23.04.2014 04:00 4,3 C 94 % 1018,1 hPa 0,0 l/m 0,1 km/h (0 Bft) O-SO 0,00 h 0,000 mm 0,0 UV-I 0 W/m 3,5 C 4,3 C 0,3 km/h (0 Bft)
23.04.2014 05:00 3,7 C 94 % 1018,3 hPa 0,0 l/m 0,0 km/h (0 Bft) N 0,00 h 0,000 mm 0,0 UV-I 0 W/m 2,8 C 3,7 C 0,0 km/h (0 Bft)
23.04.2014 06:00 3,3 C 95 % 1018,8 hPa 0,0 l/m 0,0 km/h (0 Bft) O-SO 0,00 h 0,000 mm 0,0 UV-I 14 W/m 2,6 C 3,3 C 0,2 km/h (0 Bft)
23.04.2014 07:00 4,7 C 95 % 1019,1 hPa 0,0 l/m 0,0 km/h (0 Bft) O-SO 0,38 h 0,000 mm 0,5 UV-I 57 W/m 3,9 C 4,7 C 0,1 km/h (0 Bft)
23.04.2014 08:00 8,8 C 87 % 1019,3 hPa 0,0 l/m 0,1 km/h (0 Bft) S-SW 0,98 h 0,025 mm 1,1 UV-I 282 W/m 6,7 C 8,8 C 0,9 km/h (0 Bft)
23.04.2014 09:00 13,6 C 71 % 1019,4 hPa 0,0 l/m 1,0 km/h (0 Bft) W-SW 1,00 h 0,127 mm 2,2 UV-I 525 W/m 8,4 C 13,6 C 2,5 km/h (1 Bft)
23.04.2014 10:00 16,1 C 61 % 1019,4 hPa 0,0 l/m 4,0 km/h (1 Bft) W-NW 1,00 h 0,279 mm 3,5 UV-I 666 W/m 8,5 C 15,9 C 7,0 km/h (2 Bft)
23.04.2014 11:00 17,9 C 51 % 1019,2 hPa 0,0 l/m 5,7 km/h (1 Bft) NW 1,00 h 0,381 mm 4,7 UV-I 767 W/m 7,6 C 17,6 C 8,8 km/h (2 Bft)
23.04.2014 12:00 19,3 C 48 % 1019,0 hPa 0,0 l/m 4,9 km/h (1 Bft) NW 1,00 h 0,457 mm 5,4 UV-I 859 W/m 8,0 C 19,0 C 8,5 km/h (2 Bft)
23.04.2014 13:00 19,4 C 49 % 1018,8 hPa 0,0 l/m 3,7 km/h (1 Bft) N 1,00 h 0,508 mm 4,0 UV-I 527 W/m 8,4 C 19,3 C 6,5 km/h (2 Bft)
23.04.2014 14:00 19,9 C 46 % 1018,5 hPa 0,0 l/m 4,8 km/h (1 Bft) N-NW 1,00 h 0,331 mm 4,3 UV-I 690 W/m 7,9 C 19,7 C 7,9 km/h (2 Bft)
23.04.2014 15:00 20,9 C 41 % 1018,0 hPa 0,0 l/m 6,5 km/h (2 Bft) NW 1,00 h 0,432 mm 3,8 UV-I 679 W/m 7,1 C 20,5 C 10,0 km/h (2 Bft)
23.04.2014 16:00 20,7 C 40 % 1017,6 hPa 0,0 l/m 5,1 km/h (1 Bft) N 1,00 h 0,457 mm 2,5 UV-I 537 W/m 6,5 C 20,6 C 8,6 km/h (2 Bft)
23.04.2014 17:00 20,4 C 41 % 1017,4 hPa 0,0 l/m 8,3 km/h (2 Bft) N-NO 1,00 h 0,356 mm 1,4 UV-I 393 W/m 6,7 C 19,6 C 12,7 km/h (3 Bft)
23.04.2014 18:00 19,0 C 46 % 1017,2 hPa 0,0 l/m 8,3 km/h (2 Bft) N-NO 1,00 h 0,305 mm 0,7 UV-I 90 W/m 7,0 C 18,1 C 12,0 km/h (2 Bft)
23.04.2014 19:00 17,6 C 51 % 1017,4 hPa 0,0 l/m 5,8 km/h (2 Bft) N-NO 0,02 h 0,127 mm 0,0 UV-I 29 W/m 7,5 C 17,3 C 9,2 km/h (2 Bft)
23.04.2014 20:00 15,8 C 58 % 1018,1 hPa 0,0 l/m 6,1 km/h (2 Bft) N-NO 0,00 h 0,051 mm 0,0 UV-I 8 W/m 7,6 C 15,6 C 9,4 km/h (2 Bft)
23.04.2014 21:00 14,0 C 67 % 1018,7 hPa 0,0 l/m 2,0 km/h (1 Bft) NO 0,00 h 0,051 mm 0,0 UV-I 0 W/m 7,9 C 14,0 C 3,7 km/h (1 Bft)
23.04.2014 22:00 12,2 C 75 % 1019,1 hPa 0,0 l/m 0,1 km/h (0 Bft) O-NO 0,00 h 0,025 mm 0,0 UV-I 0 W/m 7,8 C 12,2 C 0,6 km/h (0 Bft)
23.04.2014 23:00 10,5 C 81 % 1019,2 hPa 0,0 l/m 0,4 km/h (0 Bft) N 0,00 h 0,025 mm 0,0 UV-I 0 W/m 7,4 C 10,5 C 1,0 km/h (0 Bft)
24.04.2014 00:00 9,5 C 84 % 1019,1 hPa 0,0 l/m 0,8 km/h (0 Bft) N 0,00 h 0,025 mm 0,0 UV-I 0 W/m 7,0 C 9,5 C 1,5 km/h (1 Bft)
24.04.2014 01:00 8,7 C 87 % 1019,3 hPa 0,0 l/m 0,3 km/h (0 Bft) N 0,00 h 0,000 mm 0,0 UV-I 0 W/m 6,7 C 8,7 C 0,7 km/h (0 Bft)
24.04.2014 02:00 7,3 C 91 % 1019,2 hPa 0,0 l/m 0,0 km/h (0 Bft) N 0,00 h 0,000 mm 0,0 UV-I 0 W/m 5,9 C 7,3 C 0,0 km/h (0 Bft)
24.04.2014 03:00 6,7 C 92 % 1019,2 hPa 0,0 l/m 0,2 km/h (0 Bft) N 0,00 h 0,000 mm 0,0 UV-I 0 W/m 5,5 C 6,7 C 0,4 km/h (0 Bft)
24.04.2014 04:00 6,0 C 93 % 1019,1 hPa 0,0 l/m 0,0 km/h (0 Bft) N 0,00 h 0,000 mm 0,0 UV-I 0 W/m 4,9 C 6,0 C 0,0 km/h (0 Bft)
24.04.2014 05:00 5,4 C 93 % 1019,0 hPa 0,0 l/m 0,0 km/h (0 Bft) N 0,00 h 0,000 mm 0,0 UV-I 0 W/m 4,5 C 5,4 C 0,0 km/h (0 Bft)
24.04.2014 06:00 5,1 C 93 % 1019,2 hPa 0,0 l/m 0,0 km/h (0 Bft) N 0,00 h 0,000 mm 0,0 UV-I 15 W/m 4,1 C 5,1 C 0,0 km/h (0 Bft)
24.04.2014 07:00 6,2 C 93 % 1019,4 hPa 0,0 l/m 0,0 km/h (0 Bft) N 0,80 h 0,000 mm 0,5 UV-I 67 W/m 5,2 C 6,2 C 0,4 km/h (0 Bft)
24.04.2014 08:00 10,1 C 86 % 1019,3 hPa 0,0 l/m 0,1 km/h (0 Bft) N 1,00 h 0,025 mm 1,0 UV-I 268 W/m 7,7 C 10,1 C 0,8 km/h (0 Bft)
24.04.2014 09:00 15,6 C 71 % 1019,1 hPa 0,0 l/m 1,3 km/h (1 Bft) N-NW 1,00 h 0,127 mm 2,1 UV-I 499 W/m 10,2 C 15,6 C 2,9 km/h (1 Bft)
24.04.2014 10:00 18,3 C 57 % 1018,9 hPa 0,0 l/m 3,5 km/h (1 Bft) N 1,00 h 0,279 mm 3,2 UV-I 657 W/m 9,6 C 18,1 C 6,4 km/h (2 Bft)
24.04.2014 11:00 18,6 C 56 % 1018,6 hPa 0,0 l/m 6,9 km/h (2 Bft) N-NO 1,00 h 0,381 mm 3,4 UV-I 503 W/m 9,6 C 18,0 C 10,7 km/h (2 Bft)
24.04.2014 12:00 20,1 C 51 % 1018,1 hPa 0,0 l/m 6,0 km/h (2 Bft) N-NO 1,00 h 0,330 mm 4,6 UV-I 805 W/m 9,7 C 19,8 C 9,5 km/h (2 Bft)
24.04.2014 13:00 20,0 C 46 % 1017,6 hPa 0,0 l/m 4,0 km/h (1 Bft) O 1,00 h 0,508 mm 4,0 UV-I 627 W/m 8,0 C 19,9 C 7,8 km/h (2 Bft)
24.04.2014 14:00 19,6 C 47 % 1017,2 hPa 0,0 l/m 5,6 km/h (1 Bft) SO 1,00 h 0,381 mm 3,9 UV-I 567 W/m 8,0 C 19,3 C 9,7 km/h (2 Bft)
24.04.2014 15:00 21,3 C 44 % 1016,4 hPa 0,0 l/m 5,8 km/h (2 Bft) N-NO 1,00 h 0,357 mm 3,3 UV-I 605 W/m 8,7 C 21,0 C 9,4 km/h (2 Bft)
24.04.2014 16:00 19,6 C 48 % 1015,7 hPa 0,0 l/m 6,4 km/h (2 Bft) N 1,00 h 0,406 mm 1,7 UV-I 263 W/m 8,1 C 19,1 C 9,7 km/h (2 Bft)
24.04.2014 17:00 19,4 C 49 % 1015,4 hPa 0,0 l/m 8,5 km/h (2 Bft) N 1,00 h 0,203 mm 1,2 UV-I 195 W/m 8,4 C 18,4 C 12,8 km/h (3 Bft)
24.04.2014 18:00 19,1 C 54 % 1015,2 hPa 0,0 l/m 8,3 km/h (2 Bft) NO 0,67 h 0,178 mm 0,7 UV-I 118 W/m 9,4 C 18,2 C 14,7 km/h (3 Bft)
24.04.2014 19:00 16,9 C 61 % 1015,5 hPa 0,0 l/m 7,2 km/h (2 Bft) O-NO 0,00 h 0,127 mm 0,0 UV-I 18 W/m 9,2 C 16,1 C 13,0 km/h (3 Bft)
24.04.2014 20:00 15,3 C 68 % 1015,9 hPa 0,0 l/m 5,0 km/h (1 Bft) NO 0,00 h 0,051 mm 0,0 UV-I 5 W/m 9,4 C 15,2 C 9,4 km/h (2 Bft)
24.04.2014 21:00 13,8 C 73 % 1015,9 hPa 0,0 l/m 4,0 km/h (1 Bft) NO 0,00 h 0,025 mm 0,0 UV-I 0 W/m 9,1 C 13,8 C 7,1 km/h (2 Bft)
24.04.2014 22:00 13,1 C 78 % 1016,0 hPa 0,0 l/m 2,8 km/h (1 Bft) NO 0,00 h 0,025 mm 0,0 UV-I 0 W/m 9,3 C 13,1 C 5,6 km/h (1 Bft)
24.04.2014 23:00 11,9 C 83 % 1015,7 hPa 0,0 l/m 0,9 km/h (0 Bft) N-NO 0,00 h 0,025 mm 0,0 UV-I 0 W/m 9,1 C 11,9 C 2,6 km/h (1 Bft)
25.04.2014 00:00 11,4 C 86 % 1015,3 hPa 0,0 l/m 1,1 km/h (1 Bft) O-NO 0,00 h 0,025 mm 0,0 UV-I 0 W/m 9,2 C 11,4 C 3,1 km/h (1 Bft)
25.04.2014 01:00 10,8 C 86 % 1014,8 hPa 0,0 l/m 0,7 km/h (0 Bft) S-SO 0,00 h 0,000 mm 0,0 UV-I 0 W/m 8,7 C 10,8 C 2,0 km/h (1 Bft)
25.04.2014 02:00 9,8 C 89 % 1014,3 hPa 0,0 l/m 2,7 km/h (1 Bft) N-NO 0,00 h 0,000 mm 0,0 UV-I 0 W/m 8,0 C 9,8 C 4,6 km/h (1 Bft)
25.04.2014 03:00 9,2 C 89 % 1013,7 hPa 0,0 l/m 0,7 km/h (0 Bft) O-NO 0,00 h 0,000 mm 0,0 UV-I 0 W/m 7,6 C 9,2 C 1,6 km/h (1 Bft)
25.04.2014 04:00 8,2 C 92 % 1013,6 hPa 0,0 l/m 0,7 km/h (0 Bft) N 0,00 h 0,000 mm 0,0 UV-I 0 W/m 6,9 C 8,2 C 1,6 km/h (1 Bft)
25.04.2014 05:00 7,2 C 92 % 1013,3 hPa 0,0 l/m 0,5 km/h (0 Bft) O-NO 0,00 h 0,000 mm 0,0 UV-I 0 W/m 6,0 C 7,2 C 1,5 km/h (1 Bft)
25.04.2014 06:00 7,0 C 92 % 1013,1 hPa 0,0 l/m 0,6 km/h (0 Bft) N 0,00 h 0,000 mm 0,0 UV-I 18 W/m 5,9 C 7,0 C 1,7 km/h (1 Bft)
25.04.2014 07:00 8,8 C 91 % 1013,1 hPa 0,0 l/m 0,7 km/h (0 Bft) N 0,78 h 0,000 mm 0,5 UV-I 71 W/m 7,3 C 8,8 C 1,9 km/h (1 Bft)
25.04.2014 08:00 12,4 C 82 % 1012,8 hPa 0,0 l/m 3,3 km/h (1 Bft) O-NO 1,00 h 0,025 mm 1,1 UV-I 279 W/m 9,4 C 12,2 C 7,1 km/h (2 Bft)
25.04.2014 09:00 15,6 C 72 % 1012,5 hPa 0,0 l/m 8,2 km/h (2 Bft) O-NO 1,00 h 0,152 mm 2,1 UV-I 506 W/m 10,5 C 14,5 C 14,3 km/h (3 Bft)
25.04.2014 10:00 17,6 C 65 % 1012,2 hPa 0,0 l/m 7,0 km/h (2 Bft) O-NO 1,00 h 0,305 mm 3,4 UV-I 649 W/m 10,9 C 16,9 C 13,0 km/h (3 Bft)
25.04.2014 11:00 19,0 C 59 % 1011,9 hPa 0,0 l/m 8,5 km/h (2 Bft) O 1,00 h 0,381 mm 4,6 UV-I 754 W/m 10,8 C 18,0 C 14,9 km/h (3 Bft)
25.04.2014 12:00 19,4 C 57 % 1011,5 hPa 0,0 l/m 8,5 km/h (2 Bft) SO 1,00 h 0,457 mm 4,3 UV-I 633 W/m 10,5 C 18,4 C 15,6 km/h (3 Bft)
25.04.2014 13:00 19,2 C 57 % 1010,9 hPa 0,0 l/m 6,8 km/h (2 Bft) O-NO 1,00 h 0,381 mm 3,6 UV-I 320 W/m 10,4 C 18,6 C 13,1 km/h (3 Bft)
25.04.2014 14:00 20,1 C 54 % 1010,6 hPa 0,0 l/m 6,2 km/h (2 Bft) SO 1,00 h 0,279 mm 3,4 UV-I 489 W/m 10,5 C 19,7 C 11,6 km/h (2 Bft)
25.04.2014 15:00 20,1 C 53 % 1010,1 hPa 0,0 l/m 6,1 km/h (2 Bft) O 1,00 h 0,305 mm 2,7 UV-I 403 W/m 10,3 C 19,8 C 10,8 km/h (2 Bft)
25.04.2014 16:00 20,4 C 52 % 1009,9 hPa 0,0 l/m 6,5 km/h (2 Bft) O-SO 1,00 h 0,279 mm 2,2 UV-I 443 W/m 10,4 C 20,0 C 11,4 km/h (2 Bft)
25.04.2014 17:00 20,6 C 51 % 1009,6 hPa 0,0 l/m 6,5 km/h (2 Bft) SO 1,00 h 0,305 mm 1,3 UV-I 373 W/m 10,0 C 20,1 C 11,5 km/h (2 Bft)
25.04.2014 18:00 19,0 C 57 % 1009,6 hPa 0,0 l/m 5,5 km/h (1 Bft) O-NO 1,00 h 0,279 mm 0,5 UV-I 95 W/m 10,2 C 18,7 C 10,1 km/h (2 Bft)
25.04.2014 19:00 17,8 C 63 % 1009,8 hPa 0,0 l/m 6,3 km/h (2 Bft) O-NO 0,13 h 0,102 mm 0,0 UV-I 34 W/m 10,8 C 17,5 C 11,3 km/h (2 Bft)
25.04.2014 20:00 16,2 C 70 % 1010,4 hPa 0,0 l/m 5,2 km/h (1 Bft) O-NO 0,00 h 0,051 mm 0,0 UV-I 8 W/m 10,7 C 15,9 C 10,4 km/h (2 Bft)
25.04.2014 21:00 14,5 C 75 % 1010,8 hPa 0,0 l/m 3,2 km/h (1 Bft) O 0,00 h 0,025 mm 0,0 UV-I 0 W/m 10,2 C 14,5 C 7,1 km/h (2 Bft)
25.04.2014 22:00 13,3 C 78 % 1011,0 hPa 0,0 l/m 1,6 km/h (1 Bft) O 0,00 h 0,025 mm 0,0 UV-I 0 W/m 9,5 C 13,3 C 3,6 km/h (1 Bft)
25.04.2014 23:00 12,0 C 82 % 1011,3 hPa 0,0 l/m 0,5 km/h (0 Bft) NO 0,00 h 0,025 mm 0,0 UV-I 0 W/m 9,0 C 12,0 C 1,8 km/h (1 Bft)
26.04.2014 00:00 11,1 C 84 % 1011,5 hPa 0,0 l/m 1,4 km/h (1 Bft) NO 0,00 h 0,025 mm 0,0 UV-I 0 W/m 8,5 C 11,1 C 3,1 km/h (1 Bft)
26.04.2014 01:00 10,6 C 86 % 1011,4 hPa 0,0 l/m 1,6 km/h (1 Bft) O-NO 0,00 h 0,025 mm 0,0 UV-I 0 W/m 8,4 C 10,6 C 3,8 km/h (1 Bft)
26.04.2014 02:00 9,9 C 90 % 1011,2 hPa 0,0 l/m 2,1 km/h (1 Bft) O-NO 0,00 h 0,000 mm 0,0 UV-I 0 W/m 8,3 C 9,9 C 4,8 km/h (1 Bft)
26.04.2014 03:00 9,5 C 91 % 1011,1 hPa 0,0 l/m 0,7 km/h (0 Bft) O-NO 0,00 h 0,000 mm 0,0 UV-I 0 W/m 8,0 C 9,5 C 2,0 km/h (1 Bft)
26.04.2014 04:00 7,9 C 92 % 1011,1 hPa 0,0 l/m 0,0 km/h (0 Bft) N 0,00 h 0,000 mm 0,0 UV-I 0 W/m 6,8 C 7,9 C 0,1 km/h (0 Bft)
26.04.2014 05:00 7,0 C 93 % 1011,1 hPa 0,0 l/m 0,0 km/h (0 Bft) N 0,00 h 0,000 mm 0,0 UV-I 0 W/m 6,0 C 7,0 C 0,1 km/h (0 Bft)
26.04.2014 06:00 7,2 C 93 % 1011,3 hPa 0,0 l/m 0,0 km/h (0 Bft) N 0,00 h 0,000 mm 0,0 UV-I 24 W/m 6,2 C 7,2 C 0,0 km/h (0 Bft)
26.04.2014 07:00 9,0 C 92 % 1011,6 hPa 0,0 l/m 0,4 km/h (0 Bft) SO 0,97 h 0,000 mm 0,6 UV-I 83 W/m 7,8 C 9,0 C 1,1 km/h (1 Bft)
26.04.2014 08:00 11,9 C 86 % 1011,3 hPa 0,0 l/m 0,7 km/h (0 Bft) SO 1,00 h 0,051 mm 1,1 UV-I 292 W/m 9,6 C 11,9 C 1,9 km/h (1 Bft)
26.04.2014 09:00 15,7 C 74 % 1011,2 hPa 0,0 l/m 1,9 km/h (1 Bft) W-SW 1,00 h 0,152 mm 2,2 UV-I 510 W/m 11,0 C 15,7 C 3,9 km/h (1 Bft)
26.04.2014 10:00 17,7 C 64 % 1010,9 hPa 0,0 l/m 4,4 km/h (1 Bft) W-NW 1,00 h 0,279 mm 3,5 UV-I 655 W/m 10,9 C 17,6 C 7,6 km/h (2 Bft)
26.04.2014 11:00 18,4 C 62 % 1010,5 hPa 0,0 l/m 4,8 km/h (1 Bft) W-NW 1,00 h 0,381 mm 3,6 UV-I 469 W/m 10,9 C 18,3 C 8,1 km/h (2 Bft)
26.04.2014 12:00 19,5 C 57 % 1010,0 hPa 0,0 l/m 5,0 km/h (1 Bft) S 1,00 h 0,305 mm 4,8 UV-I 668 W/m 10,7 C 19,3 C 8,1 km/h (2 Bft)
26.04.2014 13:00 19,3 C 57 % 1009,4 hPa 0,0 l/m 4,3 km/h (1 Bft) SO 1,00 h 0,406 mm 2,5 UV-I 282 W/m 10,4 C 19,2 C 7,1 km/h (2 Bft)
26.04.2014 14:00 18,5 C 60 % 1008,8 hPa 0,2 l/m 9,5 km/h (2 Bft) SO 1,00 h 0,203 mm 2,1 UV-I 274 W/m 10,6 C 16,9 C 14,7 km/h (3 Bft)
26.04.2014 15:00 18,3 C 58 % 1008,3 hPa 0,0 l/m 9,8 km/h (2 Bft) SO 1,00 h 0,203 mm 2,1 UV-I 316 W/m 9,9 C 16,7 C 15,4 km/h (3 Bft)
26.04.2014 16:00 18,0 C 56 % 1008,3 hPa 0,0 l/m 1,5 km/h (1 Bft) O-SO 1,00 h 0,229 mm 0,9 UV-I 129 W/m 8,9 C 18,0 C 3,0 km/h (1 Bft)
26.04.2014 17:00 17,3 C 61 % 1008,2 hPa 0,0 l/m 3,0 km/h (1 Bft) NW 1,00 h 0,076 mm 0,6 UV-I 109 W/m 9,7 C 17,3 C 4,9 km/h (1 Bft)
26.04.2014 18:00 16,4 C 72 % 1008,0 hPa 0,0 l/m 4,0 km/h (1 Bft) NW 0,82 h 0,076 mm 0,5 UV-I 81 W/m 11,2 C 16,4 C 6,4 km/h (2 Bft)
26.04.2014 19:00 15,7 C 73 % 1007,5 hPa 0,0 l/m 1,6 km/h (1 Bft) N 0,00 h 0,051 mm 0,0 UV-I 23 W/m 10,9 C 15,7 C 3,3 km/h (1 Bft)
26.04.2014 20:00 14,5 C 81 % 1007,7 hPa 0,0 l/m 1,0 km/h (0 Bft) N-NW 0,00 h 0,025 mm 0,0 UV-I 11 W/m 11,2 C 14,5 C 2,0 km/h (1 Bft)
26.04.2014 21:00 13,8 C 84 % 1007,8 hPa 0,0 l/m 0,6 km/h (0 Bft) N-NW 0,00 h 0,000 mm 0,0 UV-I 0 W/m 11,2 C 13,8 C 1,3 km/h (1 Bft)
26.04.2014 22:00 13,0 C 84 % 1007,2 hPa 0,0 l/m 0,2 km/h (0 Bft) N-NW 0,00 h 0,025 mm 0,0 UV-I 0 W/m 10,3 C 13,0 C 0,7 km/h (0 Bft)
26.04.2014 23:00 11,6 C 87 % 1006,7 hPa 0,0 l/m 0,3 km/h (0 Bft) N-NW 0,00 h 0,000 mm 0,0 UV-I 0 W/m 9,5 C 11,6 C 1,1 km/h (0 Bft)
27.04.2014 00:00 10,2 C 90 % 1006,4 hPa 0,0 l/m 0,2 km/h (0 Bft) W-NW 0,00 h 0,000 mm 0,0 UV-I 0 W/m 8,6 C 10,2 C 0,9 km/h (0 Bft)
27.04.2014 01:00 9,8 C 92 % 1006,1 hPa 0,0 l/m 1,6 km/h (1 Bft) NW 0,00 h 0,000 mm 0,0 UV-I 0 W/m 8,5 C 9,8 C 2,6 km/h (1 Bft)
27.04.2014 02:00 9,3 C 92 % 1005,7 hPa 0,0 l/m 0,3 km/h (0 Bft) NW 0,00 h 0,000 mm 0,0 UV-I 0 W/m 8,1 C 9,3 C 1,2 km/h (1 Bft)
27.04.2014 03:00 8,8 C 93 % 1005,3 hPa 0,0 l/m 0,4 km/h (0 Bft) NW 0,00 h 0,000 mm 0,0 UV-I 0 W/m 7,8 C 8,8 C 1,4 km/h (1 Bft)
27.04.2014 04:00 9,0 C 93 % 1004,9 hPa 0,0 l/m 0,3 km/h (0 Bft) N-NO 0,00 h 0,000 mm 0,0 UV-I 0 W/m 8,0 C 9,0 C 0,9 km/h (0 Bft)
27.04.2014 05:00 8,5 C 94 % 1004,7 hPa 0,0 l/m 0,3 km/h (0 Bft) O-SO 0,00 h 0,000 mm 0,0 UV-I 0 W/m 7,6 C 8,5 C 0,9 km/h (0 Bft)
27.04.2014 06:00 7,8 C 95 % 1005,0 hPa 0,0 l/m 0,7 km/h (0 Bft) N-NO 0,00 h 0,000 mm 0,0 UV-I 21 W/m 7,0 C 7,8 C 1,2 km/h (1 Bft)
27.04.2014 07:00 9,4 C 94 % 1005,2 hPa 0,0 l/m 0,6 km/h (0 Bft) N-NO 0,85 h 0,000 mm 0,6 UV-I 87 W/m 8,5 C 9,4 C 1,9 km/h (1 Bft)
27.04.2014 08:00 11,8 C 89 % 1005,2 hPa 0,0 l/m 3,5 km/h (1 Bft) O 1,00 h 0,051 mm 0,9 UV-I 190 W/m 10,0 C 11,7 C 7,2 km/h (2 Bft)
27.04.2014 09:00 12,2 C 87 % 1005,4 hPa 0,0 l/m 3,8 km/h (1 Bft) O-SO 1,00 h 0,102 mm 1,2 UV-I 227 W/m 10,1 C 12,1 C 7,4 km/h (2 Bft)
27.04.2014 10:00 12,2 C 86 % 1005,5 hPa 0,0 l/m 3,8 km/h (1 Bft) O 1,00 h 0,127 mm 1,2 UV-I 164 W/m 9,9 C 12,1 C 8,0 km/h (2 Bft)
27.04.2014 11:00 13,4 C 81 % 1005,5 hPa 0,0 l/m 4,6 km/h (1 Bft) O-NO 1,00 h 0,076 mm 2,0 UV-I 260 W/m 10,2 C 13,2 C 8,5 km/h (2 Bft)
27.04.2014 12:00 14,5 C 75 % 1005,4 hPa 0,0 l/m 4,3 km/h (1 Bft) O-NO 1,00 h 0,152 mm 2,2 UV-I 263 W/m 10,2 C 14,3 C 8,1 km/h (2 Bft)
27.04.2014 13:00 15,2 C 72 % 1005,3 hPa 0,0 l/m 3,6 km/h (1 Bft) O-NO 1,00 h 0,152 mm 2,2 UV-I 257 W/m 10,3 C 15,1 C 7,0 km/h (2 Bft)
27.04.2014 14:00 15,5 C 71 % 1004,9 hPa 0,0 l/m 2,7 km/h (1 Bft) S-SO 1,00 h 0,152 mm 1,9 UV-I 239 W/m 10,2 C 15,4 C 4,9 km/h (1 Bft)
27.04.2014 15:00 16,3 C 67 % 1004,8 hPa 0,0 l/m 2,1 km/h (1 Bft) O-NO 1,00 h 0,127 mm 2,4 UV-I 326 W/m 10,2 C 16,3 C 4,3 km/h (1 Bft)
27.04.2014 16:00 16,3 C 67 % 1004,6 hPa 0,0 l/m 2,1 km/h (1 Bft) N 1,00 h 0,203 mm 1,5 UV-I 184 W/m 10,2 C 16,3 C 4,2 km/h (1 Bft)
27.04.2014 17:00 15,8 C 73 % 1004,7 hPa 0,0 l/m 5,5 km/h (1 Bft) W-SW 1,00 h 0,102 mm 1,0 UV-I 149 W/m 10,9 C 15,4 C 8,6 km/h (2 Bft)
27.04.2014 18:00 14,8 C 80 % 1004,9 hPa 0,0 l/m 6,4 km/h (2 Bft) W 1,00 h 0,102 mm 0,6 UV-I 102 W/m 11,3 C 14,3 C 9,8 km/h (2 Bft)
27.04.2014 19:00 14,1 C 81 % 1005,5 hPa 0,0 l/m 4,9 km/h (1 Bft) W-SW 0,13 h 0,076 mm 0,0 UV-I 24 W/m 10,9 C 13,9 C 8,0 km/h (2 Bft)
27.04.2014 20:00 12,7 C 85 % 1006,2 hPa 0,0 l/m 3,7 km/h (1 Bft) W-SW 0,00 h 0,025 mm 0,0 UV-I 6 W/m 10,2 C 12,7 C 6,0 km/h (2 Bft)
27.04.2014 21:00 11,7 C 88 % 1006,7 hPa 0,0 l/m 0,4 km/h (0 Bft) W-NW 0,00 h 0,000 mm 0,0 UV-I 0 W/m 9,7 C 11,7 C 1,1 km/h (1 Bft)
27.04.2014 22:00 11,3 C 89 % 1006,9 hPa 0,0 l/m 1,4 km/h (1 Bft) S-SO 0,00 h 0,000 mm 0,0 UV-I 0 W/m 9,7 C 11,3 C 2,7 km/h (1 Bft)
27.04.2014 23:00 11,3 C 90 % 1007,1 hPa 0,0 l/m 0,2 km/h (0 Bft) S 0,00 h 0,001 mm 0,0 UV-I 0 W/m 9,7 C 11,3 C 0,8 km/h (0 Bft)
Min-Datum _ 25.04.14 23.04.14 21.04.14 - 21.04.14 - - - - - 23.04.14 21.04.14 21.04.14
_ Min-Zeit 03:30 16:31 18:37 - 00:08 - - - - - 06:06 07:35 00:40
Minimum _ 0,0 C 36 % 1003,9 hPa - 0,0 km/h (0 Bft) - - - - - 2,4 C 3,2 C 0,0 km/h (0 Bft)
Max-Datum _ 24.04.14 22.04.14 24.04.14 22.04.14 26.04.14 - 24.04.14 23.04.14 22.04.14 21.04.14 26.04.14 24.04.14 25.04.14
_ Max-Zeit 15:50 08:26 07:18 07:21 14:46 - 16:41 13:00 13:56 12:02 11:09 15:50 12:18
Maximum _ 22,6 C 97 % 1019,5 hPa 0,8 l/m 22,5 km/h
SO (4 Bft)
- 0,07 h 0,508 mm 5,9 UV-I 1053 W/m 12,2 C 22,6 C 30,6 km/h
O-SO (5 Bft)
Durchschnitt _ 12,8 C 75 % 1011,3 hPa #1,6 l/m 3,1 km/h (1 Bft) O-NO #79:51 h #19,341 mm 2,2 UV-I 289 W/m 8,1 C 12,6 C 5,5 km/h (1 Bft)